Terminal Aerodrome Forecast
Issued by NWS

Home | Current Version | Previous Version | Text Only | Print | Product List | Glossary On
Versions: 1 2 3 4 5 6 7 8 9 10 11 12 13 14 15 16
000
FTUS43 KGRR 201910 AAA
TAFAZO
TAF AMD
KAZO 201910Z 2019/2118 29011KT P6SM BKN025
     FM202030 24007KT P6SM SCT035 BKN250
     FM210900 VRB03KT 3SM BR BKN009
     FM211300 VRB04KT P6SM SCT025=

USA.gov is the U.S. government's official web portal to all federal, state and local government web resources and services.